Time;durP1;ratioP1;P1;durP2;ratioP2;P2;SDS_P1;SDS_P2;PMS_P1;PMS_P2;Temp;Humidity;BMP_temperature;BMP_pressure;BME280_temperature;BME280_humidity;BME280_pressure;Samples;Min_cycle;Max_cycle;Signal;HPM_P1;HPM_P2
2021/05/31 00:00:15;;;;;;;3.90;2.95;;;19.40;97.80;;;;;;5027524;28;20370;-70
2021/05/31 00:02:41;;;;;;;4.40;2.75;;;19.30;97.80;;;;;;5024023;28;20211;-71
2021/05/31 00:05:09;;;;;;;2.45;2.25;;;19.30;97.80;;;;;;5012510;28;20282;-70
2021/05/31 00:07:35;;;;;;;2.83;2.63;;;19.30;97.80;;;;;;5029075;28;20540;-70
2021/05/31 00:10:04;;;;;;;2.30;2.03;;;19.30;97.90;;;;;;5031832;28;20655;-70
2021/05/31 00:12:30;;;;;;;2.25;2.05;;;19.30;98.30;;;;;;5025202;28;20201;-70
2021/05/31 00:14:57;;;;;;;4.32;2.90;;;19.20;97.90;;;;;;5023265;28;20203;-70
2021/05/31 00:17:25;;;;;;;2.30;2.10;;;19.20;98.00;;;;;;5031840;28;20238;-70
2021/05/31 00:19:52;;;;;;;2.70;2.50;;;19.20;98.00;;;;;;5032133;28;20286;-71
2021/05/31 00:22:20;;;;;;;3.13;2.83;;;19.20;98.10;;;;;;5026873;28;20188;-70
2021/05/31 00:24:47;;;;;;;2.78;2.55;;;19.20;98.20;;;;;;5021864;28;20215;-71
2021/05/31 00:27:15;;;;;;;2.85;2.53;;;19.20;98.30;;;;;;5012246;28;20200;-70
2021/05/31 00:29:41;;;;;;;3.13;2.92;;;19.10;98.30;;;;;;5017086;28;20196;-70
2021/05/31 00:32:08;;;;;;;2.60;1.92;;;19.10;98.30;;;;;;5029812;28;20257;-70
2021/05/31 00:34:34;;;;;;;3.33;3.03;;;19.10;98.40;;;;;;5031614;28;20243;-70
2021/05/31 00:37:00;;;;;;;2.75;2.55;;;19.10;98.50;;;;;;5013628;28;20200;-70
2021/05/31 00:39:27;;;;;;;3.28;3.03;;;19.10;98.60;;;;;;5014787;28;20206;-71
2021/05/31 00:41:54;;;;;;;2.63;2.42;;;19.00;98.60;;;;;;5030579;28;20564;-70
2021/05/31 00:44:22;;;;;;;2.75;2.55;;;19.00;98.70;;;;;;5031325;28;20628;-70
2021/05/31 00:46:50;;;;;;;2.47;2.22;;;19.00;98.70;;;;;;5031112;28;20195;-71
2021/05/31 00:49:18;;;;;;;3.17;2.45;;;18.90;98.70;;;;;;5031170;28;20582;-70
2021/05/31 00:51:44;;;;;;;2.58;2.38;;;18.90;98.80;;;;;;5029264;28;20302;-70
2021/05/31 00:54:10;;;;;;;2.90;2.70;;;18.90;98.80;;;;;;5037336;28;20202;-70
2021/05/31 00:56:40;;;;;;;3.17;2.88;;;18.90;98.90;;;;;;5037249;28;20191;-70
2021/05/31 00:59:06;;;;;;;3.10;2.88;;;18.90;98.90;;;;;;5030316;28;20356;-70
2021/05/31 01:01:33;;;;;;;3.25;2.72;;;18.80;98.90;;;;;;5030677;28;20214;-70
2021/05/31 01:04:00;;;;;;;2.90;2.70;;;18.80;99.00;;;;;;5012017;28;20191;-70
2021/05/31 01:06:31;;;;;;;3.20;2.90;;;18.80;99.10;;;;;;5011763;28;20206;-70
2021/05/31 01:09:05;;;;;;;2.90;2.70;;;18.80;99.10;;;;;;5031393;28;20564;-70
2021/05/31 01:11:39;;;;;;;3.15;2.95;;;18.80;99.20;;;;;;5013091;28;20203;-71
2021/05/31 01:14:11;;;;;;;3.80;3.40;;;18.80;99.20;;;;;;5012033;28;20187;-70
2021/05/31 01:16:45;;;;;;;3.50;3.20;;;18.70;99.20;;;;;;5012497;28;20211;-70
2021/05/31 01:19:15;;;;;;;3.35;3.05;;;18.70;99.20;;;;;;5030990;28;20219;-70
2021/05/31 01:21:56;;;;;;;3.25;2.95;;;18.70;99.20;;;;;;5028977;28;20625;-70
2021/05/31 01:24:38;;;;;;;2.58;2.30;;;18.70;99.30;;;;;;5030571;28;20664;-70
2021/05/31 01:27:10;;;;;;;2.78;2.58;;;18.60;99.30;;;;;;5031493;28;20210;-70
2021/05/31 01:29:40;;;;;;;3.75;2.63;;;18.60;99.30;;;;;;5031560;28;20254;-70
2021/05/31 01:32:09;;;;;;;3.63;3.33;;;18.60;99.40;;;;;;5030298;28;20222;-70
2021/05/31 01:34:37;;;;;;;3.10;2.75;;;18.60;99.40;;;;;;5030965;28;20261;-70
2021/05/31 01:37:06;;;;;;;3.35;3.05;;;18.60;99.50;;;;;;5019693;28;20196;-70
2021/05/31 01:39:37;;;;;;;6.65;3.88;;;18.60;99.50;;;;;;5020950;28;20604;-70
2021/05/31 01:42:04;;;;;;;2.92;2.72;;;18.60;99.60;;;;;;5035086;28;20191;-70
2021/05/31 01:44:31;;;;;;;3.83;3.35;;;18.50;99.60;;;;;;5035272;28;20214;-70
2021/05/31 01:46:59;;;;;;;2.97;2.70;;;18.50;99.70;;;;;;5034737;28;20203;-70
2021/05/31 01:49:26;;;;;;;3.05;2.85;;;18.50;99.70;;;;;;5035195;28;20281;-70
2021/05/31 01:51:53;;;;;;;3.65;3.35;;;18.50;99.80;;;;;;5030017;28;20200;-70
2021/05/31 01:54:20;;;;;;;2.95;2.75;;;18.50;99.80;;;;;;5015675;28;20200;-70
2021/05/31 01:56:49;;;;;;;3.72;2.88;;;18.50;99.80;;;;;;5018389;28;20200;-70
2021/05/31 01:59:17;;;;;;;4.50;4.10;;;18.40;99.80;;;;;;5018475;28;20618;-70
2021/05/31 02:01:44;;;;;;;2.90;2.70;;;18.40;99.80;;;;;;5031547;28;20203;-70
2021/05/31 02:04:12;;;;;;;3.35;3.05;;;18.40;99.90;;;;;;5028905;28;20196;-70
2021/05/31 02:06:38;;;;;;;3.22;2.92;;;18.40;99.90;;;;;;5034550;28;20199;-70
2021/05/31 02:09:05;;;;;;;2.90;2.70;;;18.40;99.90;;;;;;5033837;28;20211;-70
2021/05/31 02:11:38;;;;;;;3.78;2.80;;;18.40;99.90;;;;;;5033779;28;20203;-71
2021/05/31 02:14:08;;;;;;;4.15;3.03;;;18.30;99.90;;;;;;5034500;28;20211;-70
2021/05/31 02:16:41;;;;;;;4.43;2.90;;;18.30;99.90;;;;;;5034650;28;20234;-70
2021/05/31 02:19:11;;;;;;;3.55;3.25;;;18.30;99.90;;;;;;5034538;28;20679;-71
2021/05/31 02:21:39;;;;;;;3.35;3.00;;;18.30;99.90;;;;;;5032820;28;20273;-71
2021/05/31 02:24:06;;;;;;;3.47;2.80;;;18.30;99.90;;;;;;5014280;28;20204;-70
2021/05/31 02:26:33;;;;;;;2.88;2.67;;;18.30;99.90;;;;;;5025118;28;20207;-71
2021/05/31 02:28:59;;;;;;;3.83;3.20;;;18.20;99.90;;;;;;5033625;28;20206;-70
2021/05/31 02:31:26;;;;;;;4.95;4.00;;;18.20;99.90;;;;;;5034270;28;20262;-70
2021/05/31 02:33:52;;;;;;;3.10;2.80;;;18.20;99.90;;;;;;5032958;28;20223;-70
2021/05/31 02:36:19;;;;;;;3.75;3.42;;;18.20;99.90;;;;;;5019951;28;20196;-70
2021/05/31 02:38:46;;;;;;;3.70;3.20;;;18.20;99.90;;;;;;5014309;28;20557;-70
2021/05/31 02:41:12;;;;;;;3.17;2.97;;;18.20;99.90;;;;;;5031156;28;20710;-70
2021/05/31 02:43:39;;;;;;;3.30;2.95;;;18.10;99.90;;;;;;5033335;28;20207;-70
2021/05/31 02:46:05;;;;;;;3.88;3.05;;;18.10;99.90;;;;;;5032883;28;20207;-70
2021/05/31 02:48:31;;;;;;;3.40;3.15;;;18.10;99.90;;;;;;5032828;28;20192;-70
2021/05/31 02:50:57;;;;;;;2.92;2.72;;;18.10;99.90;;;;;;5033053;28;20207;-70
2021/05/31 02:53:25;;;;;;;3.20;2.90;;;18.00;99.90;;;;;;5033345;28;20242;-70
2021/05/31 02:55:52;;;;;;;3.15;2.95;;;18.00;99.90;;;;;;5025247;28;20204;-70
2021/05/31 02:58:18;;;;;;;4.28;2.88;;;18.00;99.90;;;;;;5013334;28;20691;-69
2021/05/31 03:00:45;;;;;;;3.65;3.35;;;18.00;99.90;;;;;;5026749;28;20262;-70
2021/05/31 03:03:11;;;;;;;4.43;3.53;;;18.00;99.90;;;;;;5014134;28;20208;-69
2021/05/31 03:05:38;;;;;;;3.28;2.97;;;17.90;99.90;;;;;;5013741;28;20216;-69
2021/05/31 03:08:05;;;;;;;3.47;3.17;;;17.90;99.90;;;;;;5013598;28;20200;-70
2021/05/31 03:10:32;;;;;;;3.47;3.17;;;17.90;99.90;;;;;;5016107;28;20551;-71
2021/05/31 03:13:00;;;;;;;3.42;3.22;;;17.90;99.90;;;;;;5024569;28;20206;-70
2021/05/31 03:15:27;;;;;;;4.45;4.05;;;17.90;99.90;;;;;;5033492;28;20253;-69
2021/05/31 03:17:53;;;;;;;3.30;3.00;;;17.90;99.90;;;;;;5033102;28;20220;-69
2021/05/31 03:20:22;;;;;;;3.25;2.95;;;17.80;99.90;;;;;;5031593;28;20241;-69
2021/05/31 03:22:48;;;;;;;3.47;3.17;;;17.80;99.90;;;;;;5032600;28;20196;-69
2021/05/31 03:25:15;;;;;;;4.47;3.67;;;17.80;99.90;;;;;;5030380;28;20211;-69
2021/05/31 03:27:43;;;;;;;4.25;3.83;;;17.80;99.90;;;;;;5013297;28;20204;-70
2021/05/31 03:30:11;;;;;;;3.60;3.30;;;17.70;99.90;;;;;;5015799;28;20196;-70
2021/05/31 03:32:38;;;;;;;3.47;3.17;;;17.70;99.90;;;;;;5019850;28;20196;-70
2021/05/31 03:35:06;;;;;;;3.20;2.97;;;17.70;99.90;;;;;;5032929;28;20207;-70
2021/05/31 03:37:32;;;;;;;3.17;2.97;;;17.70;99.90;;;;;;5032727;28;20270;-70
2021/05/31 03:39:58;;;;;;;3.53;3.22;;;17.70;99.90;;;;;;5028427;28;20200;-70
2021/05/31 03:42:25;;;;;;;3.53;3.22;;;17.70;99.90;;;;;;5016340;28;20625;-69
2021/05/31 03:44:52;;;;;;;3.90;3.60;;;17.60;99.90;;;;;;5014650;28;20207;-68
2021/05/31 03:47:19;;;;;;;4.05;3.63;;;17.60;99.90;;;;;;5032897;28;20215;-70
2021/05/31 03:49:45;;;;;;;3.63;3.30;;;17.60;99.90;;;;;;5032471;28;20204;-70
2021/05/31 03:52:11;;;;;;;3.83;3.20;;;17.60;99.90;;;;;;5031945;28;20191;-70
2021/05/31 03:54:37;;;;;;;3.92;3.63;;;17.60;99.90;;;;;;5032745;28;20207;-70
2021/05/31 03:57:04;;;;;;;4.63;3.50;;;17.60;99.90;;;;;;5028011;28;20203;-69
2021/05/31 03:59:30;;;;;;;4.07;3.70;;;17.50;99.90;;;;;;5012522;28;20230;-69
2021/05/31 04:01:58;;;;;;;3.20;2.90;;;17.50;99.90;;;;;;5019654;28;20263;-69
2021/05/31 04:04:24;;;;;;;3.60;3.30;;;17.50;99.90;;;;;;5032413;28;20535;-70
2021/05/31 04:11:33;;;;;;;4.30;3.55;;;17.50;99.90;;;;;;5032023;28;20207;-70
2021/05/31 04:12:31;;;;;;;2.80;2.60;;;17.50;99.90;;;;;;5031496;28;20203;-70
2021/05/31 04:14:57;;;;;;;3.47;3.25;;;17.50;99.90;;;;;;5031097;28;20636;-69
2021/05/31 04:17:25;;;;;;;4.85;3.72;;;17.40;99.90;;;;;;5012356;28;20218;-70
2021/05/31 04:19:51;;;;;;;4.65;4.25;;;17.40;99.90;;;;;;5012549;28;20755;-69
2021/05/31 04:22:17;;;;;;;3.42;3.13;;;17.40;99.90;;;;;;5026376;28;20204;-69
2021/05/31 04:24:43;;;;;;;3.75;3.42;;;17.40;99.90;;;;;;5031897;28;20225;-69
2021/05/31 04:27:09;;;;;;;5.05;4.10;;;17.40;99.90;;;;;;5032398;28;20541;-69
2021/05/31 04:29:35;;;;;;;3.78;3.47;;;17.40;99.90;;;;;;5032080;28;20203;-70
2021/05/31 04:32:02;;;;;;;4.25;3.30;;;17.40;99.90;;;;;;5031550;28;20207;-69
2021/05/31 04:34:30;;;;;;;3.45;3.00;;;17.40;99.90;;;;;;5022947;28;20227;-69
2021/05/31 04:36:56;;;;;;;4.78;3.95;;;17.30;99.90;;;;;;5030243;28;20202;-71
2021/05/31 04:39:22;;;;;;;4.20;3.80;;;17.30;99.90;;;;;;5032124;28;20212;-70
2021/05/31 04:41:48;;;;;;;4.00;3.60;;;17.30;99.90;;;;;;5031884;28;20537;-70
2021/05/31 04:44:15;;;;;;;4.68;3.67;;;17.30;99.90;;;;;;5013688;28;20207;-70
2021/05/31 04:46:41;;;;;;;5.80;3.80;;;17.30;99.90;;;;;;5028187;28;20212;-70
2021/05/31 04:49:07;;;;;;;3.80;3.47;;;17.30;99.90;;;;;;5031613;28;20196;-69
2021/05/31 04:51:35;;;;;;;3.67;3.35;;;17.30;99.90;;;;;;5031695;28;20536;-69
2021/05/31 04:54:02;;;;;;;4.63;3.63;;;17.30;99.90;;;;;;5031667;28;20195;-69
2021/05/31 04:56:28;;;;;;;3.60;3.25;;;17.30;99.90;;;;;;5021281;28;20763;-69
2021/05/31 04:58:54;;;;;;;4.68;4.28;;;17.30;99.90;;;;;;5031851;28;20663;-69
2021/05/31 05:01:21;;;;;;;4.93;4.53;;;17.30;99.90;;;;;;5032483;28;20203;-69
2021/05/31 05:03:47;;;;;;;3.83;3.47;;;17.20;99.90;;;;;;5032013;28;20199;-69
2021/05/31 05:06:13;;;;;;;4.00;3.70;;;17.20;99.90;;;;;;5031524;28;20714;-70
2021/05/31 05:08:41;;;;;;;4.32;3.95;;;17.20;99.90;;;;;;5032049;28;20202;-69
2021/05/31 05:11:07;;;;;;;5.85;3.88;;;17.20;99.90;;;;;;5029978;28;20191;-69
2021/05/31 05:13:34;;;;;;;4.00;3.60;;;17.20;99.90;;;;;;5013426;28;20237;-70
2021/05/31 05:16:00;;;;;;;3.63;3.33;;;17.20;99.90;;;;;;5028207;28;20196;-71
2021/05/31 05:18:26;;;;;;;4.75;4.25;;;17.20;99.90;;;;;;5030186;28;20222;-70
2021/05/31 05:20:52;;;;;;;4.35;3.60;;;17.20;99.90;;;;;;5030864;28;20203;-70
2021/05/31 05:23:19;;;;;;;4.57;4.07;;;17.20;99.90;;;;;;5030994;28;20199;-71
2021/05/31 05:25:46;;;;;;;4.32;3.85;;;17.20;99.90;;;;;;5030855;28;20702;-70
2021/05/31 05:28:12;;;;;;;4.28;3.88;;;17.20;99.90;;;;;;5026109;28;20210;-69
2021/05/31 05:30:38;;;;;;;6.60;4.85;;;17.20;99.90;;;;;;5029767;28;20203;-70
2021/05/31 05:33:05;;;;;;;4.75;4.30;;;17.30;99.90;;;;;;5030767;28;20277;-72
2021/05/31 05:35:35;;;;;;;6.63;5.30;;;17.40;99.90;;;;;;5030204;28;20191;-71
2021/05/31 05:38:28;;;;;;;4.60;4.15;;;17.60;99.90;;;;;;5030346;28;20219;-71
2021/05/31 05:41:07;;;;;;;6.20;4.40;;;17.80;99.90;;;;;;5031314;28;20199;-71
2021/05/31 05:43:43;;;;;;;3.95;3.65;;;18.10;99.90;;;;;;5030587;28;20274;-71
2021/05/31 05:48:51;;;;;;;5.25;4.75;;;18.50;99.90;;;;;;5017814;28;20227;-72
2021/05/31 05:51:18;;;;;;;4.82;4.10;;;18.70;99.20;;;;;;5031028;28;20293;-71
2021/05/31 05:53:47;;;;;;;4.43;4.03;;;18.80;98.60;;;;;;5030855;28;20667;-71
2021/05/31 05:56:16;;;;;;;5.78;5.03;;;19.00;98.30;;;;;;5030208;28;20218;-71
2021/05/31 05:58:42;;;;;;;3.80;3.50;;;19.10;97.80;;;;;;5031490;28;20552;-69
2021/05/31 06:01:10;;;;;;;4.72;4.32;;;19.30;97.30;;;;;;5031524;28;20234;-70
2021/05/31 06:03:38;;;;;;;8.45;3.85;;;19.40;97.00;;;;;;5031967;28;20210;-70
2021/05/31 06:06:05;;;;;;;3.92;3.50;;;19.50;96.70;;;;;;5030871;28;20199;-70
2021/05/31 06:08:32;;;;;;;3.35;3.05;;;19.60;96.30;;;;;;5027916;28;20545;-70
2021/05/31 06:10:59;;;;;;;4.82;4.20;;;19.70;96.10;;;;;;5015589;28;20204;-71
2021/05/31 06:13:26;;;;;;;4.38;3.63;;;19.80;95.80;;;;;;5022165;28;20203;-70
2021/05/31 06:15:53;;;;;;;4.15;3.75;;;19.90;95.50;;;;;;5030963;28;20210;-70
2021/05/31 06:18:19;;;;;;;4.50;4.05;;;20.00;95.40;;;;;;5012114;28;20220;-71
2021/05/31 06:20:45;;;;;;;4.43;4.05;;;20.10;95.10;;;;;;5024527;28;20199;-71
2021/05/31 06:23:12;;;;;;;4.82;3.45;;;20.20;94.80;;;;;;5035334;28;20199;-71
2021/05/31 06:25:38;;;;;;;11.73;4.53;;;20.30;94.60;;;;;;5034106;28;20199;-70
2021/05/31 06:28:07;;;;;;;6.50;4.03;;;20.40;94.30;;;;;;5033618;28;20191;-70
2021/05/31 06:30:36;;;;;;;3.75;3.38;;;20.40;94.00;;;;;;5028180;28;20335;-70
2021/05/31 06:33:02;;;;;;;4.70;3.70;;;20.60;93.80;;;;;;5015101;28;20259;-70
2021/05/31 06:35:29;;;;;;;4.07;3.78;;;20.70;93.60;;;;;;5033089;28;20202;-70
2021/05/31 06:37:55;;;;;;;4.95;3.72;;;20.80;93.50;;;;;;5033253;28;20223;-70
2021/05/31 06:40:22;;;;;;;4.63;3.50;;;20.80;93.20;;;;;;5034182;28;20207;-71
2021/05/31 06:42:49;;;;;;;3.63;3.33;;;20.90;93.10;;;;;;5033021;28;20200;-71
2021/05/31 06:45:20;;;;;;;3.65;2.80;;;21.00;92.80;;;;;;5030650;28;20199;-71
2021/05/31 06:47:48;;;;;;;3.95;3.55;;;21.00;92.70;;;;;;5016230;28;20227;-71
2021/05/31 06:50:15;;;;;;;4.53;4.13;;;21.10;92.60;;;;;;5033440;28;20199;-71
2021/05/31 06:52:42;;;;;;;3.38;3.08;;;21.20;92.40;;;;;;5024715;28;20207;-70
2021/05/31 06:55:09;;;;;;;6.28;3.78;;;21.30;92.30;;;;;;5032278;28;20192;-71
2021/05/31 06:57:36;;;;;;;4.15;3.85;;;21.30;92.20;;;;;;5033581;28;20250;-70
2021/05/31 07:00:02;;;;;;;3.95;3.10;;;21.40;92.10;;;;;;5027752;28;20847;-70
2021/05/31 07:02:29;;;;;;;6.03;3.65;;;21.40;91.90;;;;;;5015803;28;20204;-71
2021/05/31 07:04:56;;;;;;;3.75;3.45;;;21.50;91.80;;;;;;5019594;28;20287;-70
2021/05/31 07:07:22;;;;;;;3.70;3.00;;;21.60;91.80;;;;;;5033453;28;20198;-70
2021/05/31 07:09:49;;;;;;;4.25;3.85;;;21.70;91.70;;;;;;5033369;28;20257;-72
2021/05/31 07:12:16;;;;;;;3.55;3.13;;;21.70;91.70;;;;;;5032368;28;20208;-73
2021/05/31 07:14:44;;;;;;;3.55;3.25;;;21.80;91.40;;;;;;5032867;28;20237;-71
2021/05/31 07:17:11;;;;;;;3.80;3.50;;;21.90;91.40;;;;;;5033445;28;20438;-70
2021/05/31 07:19:39;;;;;;;4.30;3.90;;;21.90;91.20;;;;;;5029247;28;20664;-75
2021/05/31 07:22:07;;;;;;;6.38;3.78;;;22.00;91.30;;;;;;5030967;28;20206;-70
2021/05/31 07:24:33;;;;;;;4.75;3.65;;;22.00;91.20;;;;;;5032786;28;20238;-75
2021/05/31 07:27:00;;;;;;;3.75;3.40;;;22.10;91.30;;;;;;5032433;28;20230;-70
2021/05/31 07:29:26;;;;;;;4.05;3.35;;;22.10;91.10;;;;;;5025974;28;20210;-70
2021/05/31 07:31:52;;;;;;;4.72;3.95;;;22.20;91.00;;;;;;5022705;28;20196;-70
2021/05/31 07:34:19;;;;;;;4.22;3.60;;;22.20;90.90;;;;;;5032166;28;20223;-70
2021/05/31 07:36:45;;;;;;;4.95;3.50;;;22.30;90.80;;;;;;5032755;28;20205;-69
2021/05/31 07:39:12;;;;;;;5.15;2.90;;;22.40;90.90;;;;;;5026511;28;20278;-70
2021/05/31 07:41:39;;;;;;;5.40;3.80;;;22.40;90.90;;;;;;5029458;28;20646;-69
2021/05/31 07:44:05;;;;;;;3.70;3.40;;;22.40;90.80;;;;;;5033334;28;20470;-69
2021/05/31 07:46:31;;;;;;;4.90;3.67;;;22.50;90.80;;;;;;5032898;28;20961;-70
2021/05/31 07:48:58;;;;;;;4.57;4.17;;;22.50;90.70;;;;;;5031768;28;20438;-70
2021/05/31 07:51:26;;;;;;;5.10;3.90;;;22.60;90.80;;;;;;5032003;28;20451;-69
2021/05/31 07:53:57;;;;;;;5.97;4.93;;;22.60;90.60;;;;;;5031751;28;20462;-69
2021/05/31 07:56:27;;;;;;;3.87;3.57;;;22.70;90.70;;;;;;5026851;28;20508;-69
2021/05/31 07:58:53;;;;;;;5.13;3.57;;;22.70;90.50;;;;;;5021551;28;20482;-69
2021/05/31 08:01:20;;;;;;;4.40;3.90;;;22.80;90.50;;;;;;5022875;28;20907;-70
2021/05/31 08:03:47;;;;;;;6.37;4.67;;;22.80;90.50;;;;;;5014604;28;20520;-70
2021/05/31 08:06:13;;;;;;;5.80;3.57;;;22.90;90.50;;;;;;5031622;28;20461;-69
2021/05/31 08:08:42;;;;;;;7.13;3.67;;;22.90;90.40;;;;;;5031755;28;20465;-69
2021/05/31 08:11:08;;;;;;;5.47;4.90;;;23.00;90.50;;;;;;5032549;28;20453;-69
2021/05/31 08:13:36;;;;;;;5.73;3.80;;;23.00;90.20;;;;;;5031179;28;20462;-70
2021/05/31 08:16:03;;;;;;;6.10;4.83;;;23.10;90.30;;;;;;5031042;28;20950;-70
2021/05/31 08:18:29;;;;;;;5.70;4.87;;;23.10;90.40;;;;;;5031650;28;20473;-70
2021/05/31 08:20:55;;;;;;;5.17;4.67;;;23.10;90.20;;;;;;5031908;28;20450;-70
2021/05/31 08:23:22;;;;;;;5.10;4.60;;;23.20;90.20;;;;;;5031951;28;20449;-69
2021/05/31 08:25:48;;;;;;;4.07;3.67;;;23.20;90.40;;;;;;5027892;28;20472;-69
2021/05/31 08:28:14;;;;;;;5.40;4.37;;;23.20;90.60;;;;;;5031782;28;20477;-71
2021/05/31 08:30:43;;;;;;;4.97;4.20;;;23.20;90.40;;;;;;5031307;28;20442;-70
2021/05/31 08:33:10;;;;;;;5.30;4.67;;;23.20;90.20;;;;;;5021237;28;20597;-69
2021/05/31 08:35:37;;;;;;;7.03;5.10;;;23.30;90.30;;;;;;5031340;28;20450;-70
2021/05/31 08:38:03;;;;;;;5.37;4.63;;;23.30;90.10;;;;;;5028169;28;20554;-69
2021/05/31 08:40:29;;;;;;;5.40;4.90;;;23.30;90.20;;;;;;5031962;28;20442;-70
2021/05/31 08:42:56;;;;;;;7.43;6.03;;;23.30;90.30;;;;;;5031693;28;20462;-70
2021/05/31 08:45:25;;;;;;;4.83;4.43;;;23.30;90.30;;;;;;5031037;28;20818;-69
2021/05/31 08:47:54;;;;;;;5.73;5.13;;;23.30;90.40;;;;;;5026747;28;20482;-69
2021/05/31 08:50:21;;;;;;;6.70;4.90;;;23.40;90.40;;;;;;5021864;28;20454;-69
2021/05/31 08:52:49;;;;;;;5.37;4.87;;;23.40;90.40;;;;;;5031580;28;20458;-70
2021/05/31 08:55:17;;;;;;;7.80;5.67;;;23.40;90.40;;;;;;5030931;28;20458;-69
2021/05/31 08:57:44;;;;;;;5.47;4.97;;;23.40;90.50;;;;;;5031178;28;20519;-69
2021/05/31 09:00:13;;;;;;;6.80;4.77;;;23.40;90.40;;;;;;5029532;28;20478;-69
2021/05/31 09:02:40;;;;;;;8.43;6.20;;;23.40;90.30;;;;;;5028484;28;20442;-70
2021/05/31 09:05:09;;;;;;;5.87;5.17;;;23.50;90.30;;;;;;5031368;28;20999;-69
2021/05/31 09:07:36;;;;;;;7.23;6.43;;;23.50;90.40;;;;;;5031115;28;20457;-70
2021/05/31 09:10:05;;;;;;;5.67;4.57;;;23.40;90.20;;;;;;5028084;28;20443;-69
2021/05/31 09:12:35;;;;;;;3.80;3.30;;;23.40;90.20;;;;;;5017621;28;20443;-69
2021/05/31 09:15:03;;;;;;;7.30;6.00;;;23.40;90.40;;;;;;5027987;28;21068;-69
2021/05/31 09:17:32;;;;;;;6.63;4.70;;;23.40;90.50;;;;;;5031973;28;20442;-70
2021/05/31 09:19:59;;;;;;;9.90;5.30;;;23.40;90.60;;;;;;5029043;28;20536;-70
2021/05/31 09:22:28;;;;;;;7.83;5.40;;;23.40;90.60;;;;;;5030572;28;20527;-70
2021/05/31 09:24:57;;;;;;;5.70;4.60;;;23.40;90.70;;;;;;5011370;28;20457;-70
2021/05/31 09:27:23;;;;;;;5.90;4.57;;;23.40;90.60;;;;;;5012097;28;20518;-70
2021/05/31 09:29:58;;;;;;;6.77;5.10;;;23.40;90.80;;;;;;5025145;28;20516;-69
2021/05/31 09:32:24;;;;;;;8.17;6.87;;;23.40;90.90;;;;;;5030482;28;20449;-70
2021/05/31 09:34:58;;;;;;;6.07;4.93;;;23.40;90.90;;;;;;5026356;28;20486;-71
2021/05/31 09:37:24;;;;;;;6.17;4.27;;;23.40;91.00;;;;;;5010649;28;20477;-69
2021/05/31 09:40:00;;;;;;;5.83;5.10;;;23.40;91.00;;;;;;5016193;28;20482;-69
2021/05/31 09:42:27;;;;;;;7.63;5.47;;;23.40;91.30;;;;;;5030739;28;20541;-71
2021/05/31 09:44:59;;;;;;;5.60;5.00;;;23.40;91.00;;;;;;5030536;28;20446;-69
2021/05/31 09:47:30;;;;;;;9.17;6.30;;;23.40;90.90;;;;;;5030160;28;20791;-70
2021/05/31 09:49:56;;;;;;;6.00;5.03;;;23.40;91.00;;;;;;5028613;28;20774;-68
2021/05/31 09:52:23;;;;;;;8.10;6.40;;;23.40;91.00;;;;;;5029473;28;20460;-69
2021/05/31 09:54:51;;;;;;;10.90;6.13;;;23.40;91.00;;;;;;5030531;28;20453;-70
2021/05/31 09:57:21;;;;;;;5.80;5.27;;;23.30;91.00;;;;;;5032929;28;20862;-69
2021/05/31 09:59:50;;;;;;;6.90;6.30;;;23.30;91.00;;;;;;5032477;28;20477;-70
2021/05/31 10:02:21;;;;;;;7.30;5.83;;;23.30;91.00;;;;;;5033119;28;20445;-70
2021/05/31 10:05:03;;;;;;;8.63;7.83;;;23.30;91.10;;;;;;5024231;28;20571;-70
2021/05/31 10:07:41;;;;;;;7.30;6.70;;;23.20;90.80;;;;;;5032748;28;20450;-69
2021/05/31 10:10:08;;;;;;;6.20;5.63;;;23.30;91.50;;;;;;5030604;28;20437;-69
2021/05/31 10:12:37;;;;;;;5.80;5.23;;;23.30;91.40;;;;;;5034360;28;20774;-69
2021/05/31 10:15:05;;;;;;;10.47;6.40;;;23.30;91.30;;;;;;5017681;28;20490;-69
2021/05/31 10:17:32;;;;;;;6.63;5.00;;;23.20;91.40;;;;;;5014609;28;20497;-69
2021/05/31 10:20:01;;;;;;;8.53;5.20;;;23.20;91.40;;;;;;5018145;28;20477;-69
2021/05/31 10:22:27;;;;;;;7.03;6.47;;;23.20;91.50;;;;;;5033315;28;20446;-69
2021/05/31 10:24:53;;;;;;;8.70;7.90;;;23.30;91.60;;;;;;5033871;28;20821;-70
2021/05/31 10:27:20;;;;;;;6.27;5.20;;;23.20;91.40;;;;;;5034226;28;20798;-68
2021/05/31 10:29:48;;;;;;;7.83;6.17;;;23.20;91.30;;;;;;5029855;28;20551;-69
2021/05/31 10:32:14;;;;;;;7.03;6.27;;;23.20;91.20;;;;;;5032013;28;20967;-69
2021/05/31 10:34:45;;;;;;;8.77;5.77;;;23.20;91.20;;;;;;5032562;28;20496;-70
2021/05/31 10:37:23;;;;;;;10.40;5.83;;;23.20;91.30;;;;;;5025037;28;20457;-70
2021/05/31 10:40:02;;;;;;;5.60;4.97;;;23.10;91.30;;;;;;5030645;28;20481;-69
2021/05/31 10:42:39;;;;;;;5.37;4.97;;;23.10;91.30;;;;;;5034362;28;20832;-70
2021/05/31 10:45:25;;;;;;;6.73;5.33;;;23.10;91.30;;;;;;5032853;28;20468;-69
2021/05/31 10:48:06;;;;;;;6.10;5.40;;;23.10;91.20;;;;;;5033547;28;20485;-69
2021/05/31 10:50:36;;;;;;;6.33;5.50;;;23.10;91.30;;;;;;5033857;28;20438;-69
2021/05/31 10:53:03;;;;;;;5.63;5.20;;;23.10;91.30;;;;;;5026106;28;20461;-69
2021/05/31 10:55:29;;;;;;;5.33;4.47;;;23.00;90.90;;;;;;5034204;28;20445;-70
2021/05/31 10:57:57;;;;;;;6.63;5.27;;;23.00;90.80;;;;;;5027099;28;20620;-70
2021/05/31 11:00:27;;;;;;;10.53;4.77;;;23.00;91.10;;;;;;5031860;28;20474;-69
2021/05/31 11:03:05;;;;;;;5.67;4.50;;;23.00;90.90;;;;;;5033836;28;20514;-69
2021/05/31 11:05:33;;;;;;;6.93;5.90;;;23.00;90.70;;;;;;5033301;28;20768;-69
2021/05/31 11:07:59;;;;;;;5.23;4.77;;;23.00;90.50;;;;;;5031133;28;20481;-69
2021/05/31 11:10:30;;;;;;;5.20;4.70;;;23.00;90.80;;;;;;5031002;28;20461;-69
2021/05/31 11:12:57;;;;;;;6.70;5.10;;;23.00;90.80;;;;;;5031927;28;20533;-68
2021/05/31 11:15:35;;;;;;;7.80;5.23;;;23.00;91.00;;;;;;5032050;28;20465;-69
2021/05/31 11:18:03;;;;;;;5.07;4.57;;;23.00;90.90;;;;;;5032318;28;20455;-69
2021/05/31 11:20:30;;;;;;;4.80;4.40;;;23.00;90.80;;;;;;5032686;28;20493;-69
2021/05/31 11:22:58;;;;;;;7.33;5.43;;;23.00;90.80;;;;;;5017051;28;20922;-69
2021/05/31 11:25:26;;;;;;;9.87;5.20;;;23.00;90.60;;;;;;5014365;28;21237;-69
2021/05/31 11:27:55;;;;;;;6.03;5.43;;;23.00;88.70;;;;;;5031838;28;20450;-69
2021/05/31 11:30:25;;;;;;;5.97;5.00;;;22.70;81.30;;;;;;5032325;28;20461;-69
2021/05/31 11:32:54;;;;;;;6.10;5.30;;;22.70;82.70;;;;;;5031996;28;20447;-69
2021/05/31 11:35:21;;;;;;;5.43;4.93;;;22.90;84.80;;;;;;5033547;28;20441;-69
2021/05/31 11:37:48;;;;;;;8.00;5.00;;;22.90;85.10;;;;;;5031803;28;20453;-69
2021/05/31 11:40:18;;;;;;;5.80;5.30;;;23.00;85.80;;;;;;5031264;28;20564;-69
2021/05/31 11:42:45;;;;;;;5.40;4.10;;;23.00;86.00;;;;;;5032751;28;20446;-69
2021/05/31 11:45:13;;;;;;;5.87;4.60;;;23.00;86.00;;;;;;5032849;28;20443;-69
2021/05/31 11:47:39;;;;;;;6.00;5.20;;;23.00;86.40;;;;;;5031976;28;20442;-69
2021/05/31 11:50:16;;;;;;;5.07;4.67;;;23.00;86.00;;;;;;5032266;28;20523;-69
2021/05/31 11:52:43;;;;;;;6.50;4.33;;;22.90;86.30;;;;;;5032962;28;20426;-69
2021/05/31 11:55:21;;;;;;;8.10;4.70;;;22.90;86.20;;;;;;5032500;28;20469;-69
2021/05/31 11:57:48;;;;;;;5.33;4.00;;;22.90;86.50;;;;;;5031601;28;20995;-69
2021/05/31 12:00:19;;;;;;;6.00;4.83;;;22.80;87.00;;;;;;5032172;28;20807;-69
2021/05/31 12:02:46;;;;;;;4.70;4.30;;;22.80;86.20;;;;;;5031067;28;20935;-69
2021/05/31 12:05:26;;;;;;;6.28;4.15;;;22.80;86.70;;;;;;5031996;28;20924;-69
2021/05/31 12:07:52;;;;;;;4.67;3.90;;;22.70;86.50;;;;;;5031551;28;20191;-69
2021/05/31 12:10:18;;;;;;;4.93;4.53;;;22.70;86.60;;;;;;5031481;28;20448;-69
2021/05/31 12:12:47;;;;;;;4.80;3.87;;;22.70;86.60;;;;;;5031487;28;20464;-69
2021/05/31 12:15:16;;;;;;;4.70;4.28;;;22.70;87.20;;;;;;5017690;28;20785;-69
2021/05/31 12:17:43;;;;;;;5.73;4.50;;;22.70;87.20;;;;;;5027281;28;20203;-69
2021/05/31 12:20:10;;;;;;;9.45;4.28;;;22.70;86.90;;;;;;5031379;28;20881;-69
2021/05/31 12:22:38;;;;;;;4.90;4.50;;;22.70;87.00;;;;;;5031433;28;20199;-69
2021/05/31 12:25:08;;;;;;;5.67;4.70;;;22.70;87.40;;;;;;5030887;28;21233;-69
2021/05/31 12:27:37;;;;;;;4.93;4.47;;;22.70;86.80;;;;;;5031505;28;20561;-69
2021/05/31 12:30:06;;;;;;;4.50;4.10;;;22.70;86.40;;;;;;5030852;28;20468;-69
2021/05/31 12:32:33;;;;;;;5.50;4.97;;;22.70;86.50;;;;;;5014715;28;20512;-69
2021/05/31 12:35:00;;;;;;;4.63;4.20;;;22.70;86.90;;;;;;5011702;28;20446;-69
2021/05/31 12:37:29;;;;;;;4.65;4.25;;;22.60;86.40;;;;;;5011813;28;20200;-69
2021/05/31 12:39:57;;;;;;;5.13;4.32;;;22.60;86.50;;;;;;5012508;28;20240;-69
2021/05/31 12:42:25;;;;;;;4.97;4.47;;;22.60;86.90;;;;;;5027627;28;20582;-69
2021/05/31 12:44:52;;;;;;;4.40;4.00;;;22.60;86.50;;;;;;5031492;28;20466;-70
2021/05/31 12:47:20;;;;;;;4.73;4.10;;;22.60;85.70;;;;;;5030923;28;20473;-69
2021/05/31 12:49:48;;;;;;;5.03;4.07;;;22.60;85.60;;;;;;5031065;28;20434;-70
2021/05/31 12:52:22;;;;;;;5.50;4.47;;;22.50;85.30;;;;;;5026214;28;20804;-69
2021/05/31 12:55:00;;;;;;;4.60;4.20;;;22.60;85.40;;;;;;5012070;28;20209;-69